Bathurst Island Cape Fourcroy, Australia
Current Conditions -  °F | °C
As of 4:00 AM on Saturday 22 Nov 2014 (Local Time) from YPDN Reporting Station
Few Clouds Few Clouds  
Wind Chill: 81°   Ceiling: Unl
Heat Index: 86°   Visibility: 6mi
Dew Point: 75°   Wind: 5mph
Humidity: 84%   Direction: 330°NNW
Pressure: 29.8"   Gusts: NA
Location:  11.78°S, 130.02°E
Report Text: YPDN 211900Z 33004KT 9999 FEW023 27/24 Q1009
Loading
Personal Weather Stations






























Interactive Weather Map New forecast layout! Learn more

10-Day Weather Forecast

Advertisements
Track Severe Weather on mobile